createdAt,value
2022-11-16T00:00:40.871Z,995.87
2022-11-16T00:01:40.968Z,995.92
2022-11-16T00:02:40.917Z,995.89
2022-11-16T00:03:40.940Z,995.84
2022-11-16T00:04:40.964Z,995.83
2022-11-16T00:05:40.981Z,995.80
2022-11-16T00:06:41.007Z,995.81
2022-11-16T00:07:41.031Z,995.80
2022-11-16T00:08:41.090Z,995.79
2022-11-16T00:09:41.077Z,995.76
2022-11-16T00:10:41.102Z,995.76
2022-11-16T00:11:41.127Z,995.76
2022-11-16T00:12:41.144Z,995.74
2022-11-16T00:13:41.164Z,995.79
2022-11-16T00:14:41.201Z,995.72
2022-11-16T00:15:41.210Z,995.74
2022-11-16T00:16:41.230Z,995.77
2022-11-16T00:17:41.254Z,995.70
2022-11-16T00:18:41.285Z,995.78
2022-11-16T00:19:41.306Z,995.69
2022-11-16T00:20:41.329Z,995.68
2022-11-16T00:21:41.355Z,995.65
2022-11-16T00:22:41.370Z,995.68
2022-11-16T00:23:41.412Z,995.69
2022-11-16T00:24:41.418Z,995.63
2022-11-16T00:25:41.437Z,995.62
2022-11-16T00:26:41.463Z,995.60
2022-11-16T00:27:41.484Z,995.59
2022-11-16T00:28:41.506Z,995.57
2022-11-16T00:29:41.532Z,995.58
2022-11-16T00:30:41.555Z,995.55
2022-11-16T00:31:41.575Z,995.56
2022-11-16T00:32:41.596Z,995.57
2022-11-16T00:33:41.618Z,995.54
2022-11-16T00:34:41.646Z,995.53
2022-11-16T00:35:41.663Z,995.55
2022-11-16T00:36:41.691Z,995.52
2022-11-16T00:37:41.712Z,995.52
2022-11-16T00:38:41.735Z,995.53
2022-11-16T00:39:41.760Z,995.54
2022-11-16T00:40:41.781Z,995.53
2022-11-16T00:41:41.803Z,995.49
2022-11-16T00:42:41.833Z,995.49
2022-11-16T00:43:41.854Z,995.45
2022-11-16T00:44:41.864Z,995.45
2022-11-16T00:45:41.893Z,995.45
2022-11-16T00:46:41.921Z,995.49
2022-11-16T00:47:41.940Z,995.50
2022-11-16T00:48:41.962Z,995.47
2022-11-16T00:49:41.984Z,995.49
2022-11-16T00:50:42.006Z,995.47
2022-11-16T00:51:42.025Z,995.48
2022-11-16T00:52:42.051Z,995.45
2022-11-16T00:53:42.072Z,995.48
2022-11-16T00:54:42.096Z,995.43
2022-11-16T00:55:42.123Z,995.42
2022-11-16T00:56:42.145Z,995.44
2022-11-16T00:57:42.165Z,995.43
2022-11-16T00:58:42.184Z,995.44
2022-11-16T00:59:42.210Z,995.41
2022-11-16T01:00:42.229Z,995.43
2022-11-16T01:01:42.341Z,995.36
2022-11-16T01:02:42.279Z,995.35
2022-11-16T01:03:42.301Z,995.35
2022-11-16T01:04:42.321Z,995.36
2022-11-16T01:05:42.346Z,995.36
2022-11-16T01:06:42.372Z,995.31
2022-11-16T01:07:42.390Z,995.32
2022-11-16T01:08:42.417Z,995.30
2022-11-16T01:09:42.437Z,995.32
2022-11-16T01:10:42.455Z,995.34
2022-11-16T01:11:42.482Z,995.34
2022-11-16T01:12:42.502Z,995.29
2022-11-16T01:13:42.526Z,995.31
2022-11-16T01:14:42.547Z,995.29
2022-11-16T01:15:42.572Z,995.30
2022-11-16T01:16:42.609Z,995.28
2022-11-16T01:17:42.615Z,995.27
2022-11-16T01:18:42.636Z,995.28
2022-11-16T01:19:42.663Z,995.28
2022-11-16T01:20:42.678Z,995.24
2022-11-16T01:21:42.704Z,995.31
2022-11-16T01:22:42.728Z,995.24
2022-11-16T01:23:42.746Z,995.27
2022-11-16T01:24:42.785Z,995.26
2022-11-16T01:25:42.796Z,995.25
2022-11-16T01:26:42.815Z,995.19
2022-11-16T01:27:42.838Z,995.17
2022-11-16T01:28:42.861Z,995.22
2022-11-16T01:29:42.883Z,995.15
2022-11-16T01:30:42.906Z,995.18
2022-11-16T01:31:42.934Z,995.16
2022-11-16T01:32:42.951Z,995.10
2022-11-16T01:33:42.977Z,995.11
2022-11-16T01:34:42.993Z,995.12
2022-11-16T01:35:43.025Z,995.08
2022-11-16T01:36:43.040Z,995.09
2022-11-16T01:37:43.062Z,995.05
2022-11-16T01:38:43.107Z,995.05
2022-11-16T01:39:43.105Z,995.03
2022-11-16T01:40:43.130Z,995.04
2022-11-16T01:41:43.151Z,994.99
2022-11-16T01:42:43.175Z,995.04
2022-11-16T01:43:43.199Z,994.98
2022-11-16T01:44:43.222Z,995.01
2022-11-16T01:45:43.238Z,994.98
2022-11-16T01:46:43.265Z,994.98
2022-11-16T01:47:43.301Z,994.95
2022-11-16T01:48:43.384Z,994.97
2022-11-16T01:49:43.335Z,994.94
2022-11-16T01:50:43.355Z,994.89
2022-11-16T01:51:43.376Z,994.91
2022-11-16T01:52:43.402Z,994.85
2022-11-16T01:53:43.422Z,994.90
2022-11-16T01:54:43.441Z,994.82
2022-11-16T01:55:43.464Z,994.84
2022-11-16T01:56:43.487Z,994.83
2022-11-16T01:57:43.513Z,994.78
2022-11-16T01:58:43.531Z,994.79
2022-11-16T01:59:43.551Z,994.75
2022-11-16T02:00:43.618Z,994.72
2022-11-16T02:01:43.635Z,994.70
2022-11-16T02:02:43.621Z,994.68
2022-11-16T02:03:43.643Z,994.63
2022-11-16T02:04:43.671Z,994.62
2022-11-16T02:05:43.690Z,994.68
2022-11-16T02:06:43.713Z,994.67
2022-11-16T02:07:43.732Z,994.66
2022-11-16T02:08:43.757Z,994.64
2022-11-16T02:09:43.779Z,994.60
2022-11-16T02:10:43.805Z,994.59
2022-11-16T02:11:43.824Z,994.57
2022-11-16T02:12:43.848Z,994.49
2022-11-16T02:13:43.870Z,994.46
2022-11-16T02:14:43.888Z,994.43
2022-11-16T02:15:43.912Z,994.46
2022-11-16T02:16:43.934Z,994.48
2022-11-16T02:17:43.954Z,994.48
2022-11-16T02:18:43.978Z,994.47
2022-11-16T02:19:44.001Z,994.47
2022-11-16T02:20:44.024Z,994.46
2022-11-16T02:21:44.048Z,994.43
2022-11-16T02:22:44.070Z,994.42
2022-11-16T02:23:44.094Z,994.42
2022-11-16T02:24:44.114Z,994.42
2022-11-16T02:25:44.138Z,994.38
2022-11-16T02:26:44.160Z,994.41
2022-11-16T02:27:44.181Z,994.36
2022-11-16T02:28:44.204Z,994.33
2022-11-16T02:29:44.226Z,994.32
2022-11-16T02:30:44.252Z,994.35
2022-11-16T02:31:44.269Z,994.30
2022-11-16T02:32:44.291Z,994.25
2022-11-16T02:33:44.314Z,994.28
2022-11-16T02:34:44.336Z,994.29
2022-11-16T02:35:44.357Z,994.26
2022-11-16T02:36:44.381Z,994.25
2022-11-16T02:37:44.403Z,994.24
2022-11-16T02:38:44.423Z,994.26
2022-11-16T02:39:44.460Z,994.25
2022-11-16T02:40:44.468Z,994.22
2022-11-16T02:41:44.493Z,994.24
2022-11-16T02:42:44.512Z,994.20
2022-11-16T02:43:44.534Z,994.22
2022-11-16T02:44:44.560Z,994.16
2022-11-16T02:45:44.580Z,994.17
2022-11-16T02:46:44.602Z,994.16
2022-11-16T02:47:44.624Z,994.19
2022-11-16T02:48:44.648Z,994.12
2022-11-16T02:49:44.668Z,994.13
2022-11-16T02:50:44.695Z,994.21
2022-11-16T02:51:44.719Z,994.20
2022-11-16T02:52:44.736Z,994.16
2022-11-16T02:53:44.753Z,994.21
2022-11-16T02:54:44.780Z,994.16
2022-11-16T02:55:44.801Z,994.14
2022-11-16T02:56:44.825Z,994.20
2022-11-16T02:57:44.857Z,994.14
2022-11-16T02:58:44.867Z,994.14
2022-11-16T02:59:44.889Z,994.11
2022-11-16T03:00:44.986Z,994.12
2022-11-16T03:01:44.934Z,994.09
2022-11-16T03:02:44.957Z,994.09
2022-11-16T03:03:44.980Z,994.10
2022-11-16T03:04:45.000Z,994.09
2022-11-16T03:05:45.021Z,994.10
2022-11-16T03:06:45.050Z,994.09
2022-11-16T03:07:45.074Z,994.13
2022-11-16T03:08:45.091Z,994.07
2022-11-16T03:09:45.112Z,994.10
2022-11-16T03:10:45.130Z,994.09
2022-11-16T03:11:45.156Z,994.09
2022-11-16T03:12:45.202Z,994.06
2022-11-16T03:13:45.200Z,994.05
2022-11-16T03:14:45.222Z,994.05
2022-11-16T03:15:45.254Z,993.98
2022-11-16T03:16:45.269Z,994.02
2022-11-16T03:17:45.287Z,994.04
2022-11-16T03:18:45.322Z,994.06
2022-11-16T03:19:45.336Z,994.08
2022-11-16T03:20:45.353Z,994.05
2022-11-16T03:21:45.376Z,994.03
2022-11-16T03:22:45.403Z,994.01
2022-11-16T03:23:45.421Z,994.03
2022-11-16T03:24:45.443Z,994.05
2022-11-16T03:25:45.467Z,994.07
2022-11-16T03:26:45.491Z,994.03
2022-11-16T03:27:45.510Z,994.03
2022-11-16T03:28:45.534Z,994.05
2022-11-16T03:29:45.555Z,994.07
2022-11-16T03:30:45.578Z,994.05
2022-11-16T03:31:45.598Z,994.05
2022-11-16T03:32:45.620Z,994.03
2022-11-16T03:33:45.641Z,993.99
2022-11-16T03:34:45.667Z,994.01
2022-11-16T03:35:45.687Z,994.00
2022-11-16T03:36:45.712Z,994.01
2022-11-16T03:37:45.731Z,994.00
2022-11-16T03:38:45.752Z,994.01
2022-11-16T03:39:45.777Z,993.99
2022-11-16T03:40:45.797Z,993.99
2022-11-16T03:41:45.820Z,993.99
2022-11-16T03:42:45.842Z,993.97
2022-11-16T03:43:45.864Z,993.99
2022-11-16T03:44:45.887Z,993.95
2022-11-16T03:45:45.908Z,993.93
2022-11-16T03:46:45.933Z,993.94
2022-11-16T03:47:45.961Z,993.95
2022-11-16T03:48:45.976Z,993.95
2022-11-16T03:49:45.998Z,993.93
2022-11-16T03:50:46.019Z,993.96
2022-11-16T03:51:46.041Z,993.93
2022-11-16T03:52:46.062Z,993.91
2022-11-16T03:53:46.085Z,993.92
2022-11-16T03:54:46.109Z,993.93
2022-11-16T03:55:49.838Z,993.90
2022-11-16T03:56:46.152Z,993.93
2022-11-16T03:57:46.175Z,993.90
2022-11-16T03:58:46.195Z,993.88
2022-11-16T03:59:46.215Z,993.89
2022-11-16T04:00:46.291Z,993.93
2022-11-16T04:01:46.289Z,993.88
2022-11-16T04:02:46.287Z,993.90
2022-11-16T04:03:46.309Z,993.90
2022-11-16T04:04:46.329Z,993.88
2022-11-16T04:05:46.347Z,993.93
2022-11-16T04:06:46.375Z,993.91
2022-11-16T04:07:46.398Z,993.90
2022-11-16T04:08:46.416Z,993.93
2022-11-16T04:09:46.437Z,993.93
2022-11-16T04:10:46.461Z,993.97
2022-11-16T04:11:46.490Z,993.94
2022-11-16T04:12:46.507Z,993.95
2022-11-16T04:13:46.534Z,993.94
2022-11-16T04:14:46.551Z,993.90
2022-11-16T04:15:46.571Z,993.93
2022-11-16T04:16:46.597Z,993.93
2022-11-16T04:17:46.617Z,993.91
2022-11-16T04:18:46.640Z,993.89
2022-11-16T04:19:46.661Z,993.92
2022-11-16T04:20:46.684Z,993.91
2022-11-16T04:21:46.718Z,993.92
2022-11-16T04:22:46.729Z,993.91
2022-11-16T04:23:46.750Z,993.90
2022-11-16T04:24:46.773Z,993.93
2022-11-16T04:25:46.793Z,993.93
2022-11-16T04:26:46.821Z,993.99
2022-11-16T04:27:46.837Z,993.97
2022-11-16T04:28:46.861Z,993.97
2022-11-16T04:29:46.881Z,994.01
2022-11-16T04:30:46.907Z,994.00
2022-11-16T04:31:46.927Z,994.04
2022-11-16T04:32:46.951Z,993.99
2022-11-16T04:33:46.982Z,994.04
2022-11-16T04:34:47.009Z,994.02
2022-11-16T04:35:47.041Z,994.03
2022-11-16T04:36:47.040Z,994.04
2022-11-16T04:37:47.055Z,994.06
2022-11-16T04:38:47.083Z,994.03
2022-11-16T04:39:47.102Z,994.07
2022-11-16T04:40:47.127Z,994.07
2022-11-16T04:41:47.149Z,994.06
2022-11-16T04:42:47.171Z,994.05
2022-11-16T04:43:47.196Z,994.04
2022-11-16T04:44:47.216Z,994.07
2022-11-16T04:45:47.240Z,994.06
2022-11-16T04:46:47.257Z,994.06
2022-11-16T04:47:47.283Z,994.08
2022-11-16T04:48:47.304Z,994.06
2022-11-16T04:49:47.326Z,994.09
2022-11-16T04:50:47.348Z,994.09
2022-11-16T04:51:47.371Z,994.07
2022-11-16T04:52:47.392Z,994.07
2022-11-16T04:53:47.416Z,994.02
2022-11-16T04:54:47.437Z,994.02
2022-11-16T04:55:47.459Z,994.03
2022-11-16T04:56:47.483Z,994.05
2022-11-16T04:57:47.503Z,994.04
2022-11-16T04:58:47.524Z,994.01
2022-11-16T04:59:47.554Z,993.99
2022-11-16T05:00:47.570Z,993.98
2022-11-16T05:01:47.662Z,993.98
2022-11-16T05:02:47.613Z,994.00
2022-11-16T05:03:47.636Z,994.01
2022-11-16T05:04:47.657Z,994.00
2022-11-16T05:05:47.680Z,993.99
2022-11-16T05:06:47.765Z,993.99
2022-11-16T05:07:47.725Z,993.97
2022-11-16T05:08:47.744Z,993.96
2022-11-16T05:09:47.774Z,993.95
2022-11-16T05:10:47.791Z,993.96
2022-11-16T05:11:47.813Z,993.91
2022-11-16T05:12:47.834Z,993.90
2022-11-16T05:13:47.859Z,993.87
2022-11-16T05:14:47.881Z,993.80
2022-11-16T05:15:47.902Z,993.78
2022-11-16T05:16:47.924Z,993.73
2022-11-16T05:17:47.945Z,993.68
2022-11-16T05:18:47.974Z,993.68
2022-11-16T05:19:47.994Z,993.70
2022-11-16T05:20:48.012Z,993.72
2022-11-16T05:21:48.034Z,993.79
2022-11-16T05:22:48.056Z,993.83
2022-11-16T05:23:48.078Z,993.85
2022-11-16T05:24:48.102Z,993.93
2022-11-16T05:25:48.123Z,993.93
2022-11-16T05:26:48.147Z,993.93
2022-11-16T05:27:48.167Z,993.92
2022-11-16T05:28:48.189Z,993.95
2022-11-16T05:29:48.211Z,993.94
2022-11-16T05:30:48.239Z,993.97
2022-11-16T05:31:48.254Z,993.97
2022-11-16T05:32:48.279Z,993.97
2022-11-16T05:33:48.302Z,993.97
2022-11-16T05:34:48.322Z,994.01
2022-11-16T05:35:48.344Z,994.00
2022-11-16T05:36:48.368Z,993.99
2022-11-16T05:37:48.393Z,994.00
2022-11-16T05:38:51.573Z,994.04
2022-11-16T05:39:48.433Z,994.03
2022-11-16T05:40:48.455Z,994.05
2022-11-16T05:41:48.476Z,994.01
2022-11-16T05:42:48.500Z,994.04
2022-11-16T05:43:48.524Z,994.04
2022-11-16T05:44:48.542Z,994.05
2022-11-16T05:45:48.566Z,994.03
2022-11-16T05:46:48.586Z,994.03
2022-11-16T05:47:48.612Z,994.03
2022-11-16T05:48:48.631Z,994.04
2022-11-16T05:49:48.652Z,994.03
2022-11-16T05:50:48.674Z,994.04
2022-11-16T05:51:48.697Z,994.08
2022-11-16T05:52:48.721Z,994.07
2022-11-16T05:53:48.742Z,994.13
2022-11-16T05:54:48.765Z,994.10
2022-11-16T05:55:48.804Z,994.13
2022-11-16T05:56:48.811Z,994.15
2022-11-16T05:57:48.831Z,994.13
2022-11-16T05:58:48.854Z,994.13
2022-11-16T05:59:48.878Z,994.20
2022-11-16T06:00:48.905Z,994.16
2022-11-16T06:01:48.925Z,994.19
2022-11-16T06:02:49.000Z,994.16
2022-11-16T06:03:48.970Z,994.14
2022-11-16T06:04:49.015Z,994.15
2022-11-16T06:05:49.017Z,994.12
2022-11-16T06:06:49.073Z,994.13
2022-11-16T06:07:49.053Z,994.11
2022-11-16T06:08:49.074Z,994.07
2022-11-16T06:09:49.099Z,994.11
2022-11-16T06:10:49.118Z,994.08
2022-11-16T06:11:49.140Z,994.10
2022-11-16T06:12:49.164Z,994.10
2022-11-16T06:13:49.188Z,994.12
2022-11-16T06:14:49.210Z,994.14
2022-11-16T06:15:49.232Z,994.13
2022-11-16T06:16:49.539Z,994.14
2022-11-16T06:17:49.283Z,994.17
2022-11-16T06:18:49.298Z,994.21
2022-11-16T06:19:49.321Z,994.22
2022-11-16T06:20:49.345Z,994.28
2022-11-16T06:21:49.367Z,994.26
2022-11-16T06:22:49.388Z,994.29
2022-11-16T06:23:49.410Z,994.35
2022-11-16T06:24:49.432Z,994.36
2022-11-16T06:25:49.454Z,994.37
2022-11-16T06:26:49.476Z,994.42
2022-11-16T06:27:49.501Z,994.41
2022-11-16T06:28:49.522Z,994.45
2022-11-16T06:29:49.544Z,994.45
2022-11-16T06:30:49.567Z,994.44
2022-11-16T06:31:49.587Z,994.44
2022-11-16T06:32:49.726Z,994.49
2022-11-16T06:33:49.637Z,994.49
2022-11-16T06:34:49.653Z,994.52
2022-11-16T06:35:49.673Z,994.53
2022-11-16T06:36:49.700Z,994.50
2022-11-16T06:37:49.721Z,994.44
2022-11-16T06:38:49.742Z,994.46
2022-11-16T06:39:49.766Z,994.51
2022-11-16T06:40:49.787Z,994.52
2022-11-16T06:41:49.811Z,994.51
2022-11-16T06:42:49.833Z,994.55
2022-11-16T06:43:49.855Z,994.57
2022-11-16T06:44:49.877Z,994.60
2022-11-16T06:45:49.904Z,994.67
2022-11-16T06:46:49.922Z,994.64
2022-11-16T06:47:49.942Z,994.60
2022-11-16T06:48:50.117Z,994.63
2022-11-16T06:49:49.989Z,994.64
2022-11-16T06:50:50.016Z,994.64
2022-11-16T06:51:50.032Z,994.67
2022-11-16T06:52:50.057Z,994.67
2022-11-16T06:53:50.079Z,994.68
2022-11-16T06:54:50.098Z,994.66
2022-11-16T06:55:50.124Z,994.68
2022-11-16T06:56:50.149Z,994.64
2022-11-16T06:57:50.167Z,994.68
2022-11-16T06:58:53.250Z,994.73
2022-11-16T06:59:50.213Z,994.74
2022-11-16T07:00:50.233Z,994.79
2022-11-16T07:01:50.304Z,994.82
2022-11-16T07:02:50.282Z,994.82
2022-11-16T07:03:50.302Z,994.86
2022-11-16T07:04:50.652Z,994.84
2022-11-16T07:05:50.346Z,994.91
2022-11-16T07:06:50.393Z,994.92
2022-11-16T07:07:50.389Z,994.94
2022-11-16T07:08:50.416Z,994.93
2022-11-16T07:09:50.435Z,994.92
2022-11-16T07:10:50.459Z,994.90
2022-11-16T07:11:50.480Z,994.89
2022-11-16T07:12:50.509Z,994.96
2022-11-16T07:13:50.524Z,994.95
2022-11-16T07:14:50.543Z,994.98
2022-11-16T07:15:50.568Z,994.94
2022-11-16T07:16:54.873Z,994.88
2022-11-16T07:17:50.619Z,994.90
2022-11-16T07:18:50.637Z,994.88
2022-11-16T07:19:50.658Z,994.90
2022-11-16T07:20:51.512Z,994.90
2022-11-16T07:21:50.703Z,994.89
2022-11-16T07:22:50.727Z,994.89
2022-11-16T07:23:50.750Z,994.88
2022-11-16T07:24:50.766Z,994.86
2022-11-16T07:25:50.793Z,994.87
2022-11-16T07:26:50.814Z,994.91
2022-11-16T07:27:50.836Z,994.91
2022-11-16T07:28:50.862Z,994.92
2022-11-16T07:29:50.884Z,994.95
2022-11-16T07:30:50.904Z,994.96
2022-11-16T07:31:50.930Z,994.92
2022-11-16T07:32:50.946Z,994.94
2022-11-16T07:33:50.975Z,994.93
2022-11-16T07:34:50.995Z,994.99
2022-11-16T07:35:51.020Z,994.96
2022-11-16T07:36:51.310Z,994.98
2022-11-16T07:37:51.066Z,994.96
2022-11-16T07:38:51.084Z,994.97
2022-11-16T07:39:51.110Z,995.00
2022-11-16T07:40:51.125Z,995.03
2022-11-16T07:41:51.153Z,995.01
2022-11-16T07:42:51.174Z,995.02
2022-11-16T07:43:53.178Z,995.04
2022-11-16T07:44:51.221Z,995.06
2022-11-16T07:45:51.243Z,995.09
2022-11-16T07:46:51.265Z,995.07
2022-11-16T07:47:51.286Z,995.09
2022-11-16T07:48:51.312Z,995.06
2022-11-16T07:49:51.342Z,995.06
2022-11-16T07:50:51.352Z,995.14
2022-11-16T07:51:51.375Z,995.13
2022-11-16T07:52:51.491Z,995.14
2022-11-16T07:53:51.420Z,995.14
2022-11-16T07:54:51.438Z,995.17
2022-11-16T07:55:51.467Z,995.18
2022-11-16T07:56:51.487Z,995.24
2022-11-16T07:57:53.396Z,995.22
2022-11-16T07:58:51.532Z,995.23
2022-11-16T07:59:51.555Z,995.26
2022-11-16T08:00:51.575Z,995.25
2022-11-16T08:01:51.701Z,995.30
2022-11-16T08:02:51.616Z,995.26
2022-11-16T08:03:51.647Z,995.28
2022-11-16T08:04:51.664Z,995.33
2022-11-16T08:05:51.692Z,995.30
2022-11-16T08:06:51.919Z,995.35
2022-11-16T08:07:51.737Z,995.30
2022-11-16T08:08:57.756Z,995.32
2022-11-16T08:09:51.823Z,995.33
2022-11-16T08:10:51.821Z,995.35
2022-11-16T08:11:51.822Z,995.36
2022-11-16T08:12:51.847Z,995.38
2022-11-16T08:13:51.869Z,995.34
2022-11-16T08:14:51.886Z,995.39
2022-11-16T08:15:51.911Z,995.35
2022-11-16T08:16:51.938Z,995.36
2022-11-16T08:17:51.958Z,995.42
2022-11-16T08:18:51.980Z,995.42
2022-11-16T08:19:52.004Z,995.44
2022-11-16T08:20:52.025Z,995.42
2022-11-16T08:21:52.049Z,995.43
2022-11-16T08:22:52.072Z,995.43
2022-11-16T08:23:57.900Z,995.43
2022-11-16T08:24:52.227Z,995.42
2022-11-16T08:25:52.135Z,995.44
2022-11-16T08:26:52.158Z,995.47
2022-11-16T08:27:52.209Z,995.49
2022-11-16T08:28:52.204Z,995.46
2022-11-16T08:29:52.241Z,995.50
2022-11-16T08:30:53.909Z,995.52
2022-11-16T08:31:52.310Z,995.50
2022-11-16T08:32:52.298Z,995.49
2022-11-16T08:33:52.317Z,995.55
2022-11-16T08:34:52.338Z,995.55
2022-11-16T08:35:52.360Z,995.53
2022-11-16T08:36:52.382Z,995.51
2022-11-16T08:37:52.410Z,995.53
2022-11-16T08:38:52.426Z,995.55
2022-11-16T08:39:52.467Z,995.50
2022-11-16T08:40:52.577Z,995.55
2022-11-16T08:41:52.502Z,995.57
2022-11-16T08:42:52.531Z,995.60
2022-11-16T08:43:52.545Z,995.56
2022-11-16T08:44:52.567Z,995.57
2022-11-16T08:45:52.588Z,995.58
2022-11-16T08:46:52.614Z,995.58
2022-11-16T08:48:03.219Z,995.57
2022-11-16T08:48:52.660Z,995.59
2022-11-16T08:49:52.678Z,995.59
2022-11-16T08:51:15.846Z,995.60
2022-11-16T08:51:52.766Z,995.56
2022-11-16T08:52:52.751Z,995.55
2022-11-16T08:53:52.770Z,995.57
2022-11-16T08:54:52.798Z,995.56
2022-11-16T08:55:52.818Z,995.57
2022-11-16T08:56:52.941Z,995.61
2022-11-16T08:57:52.862Z,995.61
2022-11-16T08:58:58.115Z,995.61
2022-11-16T08:59:52.937Z,995.63
2022-11-16T09:00:52.936Z,995.65
2022-11-16T09:01:53.029Z,995.69
2022-11-16T09:02:52.980Z,995.66
2022-11-16T09:03:53.002Z,995.70
2022-11-16T09:04:53.026Z,995.68
2022-11-16T09:05:53.080Z,995.68
2022-11-16T09:06:53.146Z,995.70
2022-11-16T09:07:53.096Z,995.73
2022-11-16T09:08:53.120Z,995.73
2022-11-16T09:09:53.140Z,995.72
2022-11-16T09:10:53.160Z,995.72
2022-11-16T09:11:53.190Z,995.74
2022-11-16T09:12:53.218Z,995.78
2022-11-16T09:13:53.235Z,995.75
2022-11-16T09:14:53.254Z,995.78
2022-11-16T09:15:53.283Z,995.79
2022-11-16T09:16:53.319Z,995.81
2022-11-16T09:17:53.329Z,995.78
2022-11-16T09:18:53.371Z,995.85
2022-11-16T09:19:53.378Z,995.80
2022-11-16T09:20:53.399Z,995.78
2022-11-16T09:21:53.422Z,995.79
2022-11-16T09:22:53.452Z,995.82
2022-11-16T09:23:53.514Z,995.82
2022-11-16T09:24:53.491Z,995.80
2022-11-16T09:25:53.519Z,995.83
2022-11-16T09:26:53.535Z,995.86
2022-11-16T09:27:53.564Z,995.90
2022-11-16T09:28:53.590Z,995.90
2022-11-16T09:29:53.616Z,995.93
2022-11-16T09:30:53.639Z,995.91
2022-11-16T09:31:53.662Z,995.91
2022-11-16T09:32:53.684Z,995.89
2022-11-16T09:33:53.706Z,995.92
2022-11-16T09:34:53.733Z,995.96
2022-11-16T09:35:53.757Z,996.00
2022-11-16T09:36:53.774Z,995.98
2022-11-16T09:37:53.820Z,995.99
2022-11-16T09:39:23.792Z,995.98
2022-11-16T09:39:53.849Z,996.01
2022-11-16T09:40:53.875Z,996.02
2022-11-16T09:41:53.896Z,996.06
2022-11-16T09:42:53.916Z,996.05
2022-11-16T09:43:53.943Z,996.09
2022-11-16T09:44:54.083Z,996.08
2022-11-16T09:45:53.992Z,996.08
2022-11-16T09:46:54.020Z,996.08
2022-11-16T09:47:54.036Z,996.10
2022-11-16T09:48:54.064Z,996.12
2022-11-16T09:49:58.086Z,996.09
2022-11-16T09:50:54.113Z,996.17
2022-11-16T09:51:54.137Z,996.13
2022-11-16T09:52:54.155Z,996.15
2022-11-16T09:53:54.197Z,996.16
2022-11-16T09:54:54.211Z,996.18
2022-11-16T09:55:54.233Z,996.20
2022-11-16T09:56:54.255Z,996.20
2022-11-16T09:57:54.278Z,996.18
2022-11-16T09:58:54.302Z,996.19
2022-11-16T09:59:54.325Z,996.18
2022-11-16T10:00:54.516Z,996.19
2022-11-16T10:01:54.377Z,996.22
2022-11-16T10:02:54.397Z,996.22
2022-11-16T10:03:54.424Z,996.25
2022-11-16T10:04:58.297Z,996.22
2022-11-16T10:05:54.468Z,996.19
2022-11-16T10:06:54.602Z,996.20
2022-11-16T10:07:54.518Z,996.22
2022-11-16T10:08:54.540Z,996.20
2022-11-16T10:09:54.567Z,996.21
2022-11-16T10:10:54.592Z,996.19
2022-11-16T10:11:54.614Z,996.19
2022-11-16T10:12:54.638Z,996.26
2022-11-16T10:13:54.662Z,996.22
2022-11-16T10:14:54.688Z,996.23
2022-11-16T10:15:54.712Z,996.24
2022-11-16T10:17:01.912Z,996.25
2022-11-16T10:18:59.223Z,996.28
2022-11-16T10:19:58.765Z,996.32
2022-11-16T10:22:02.817Z,996.36
2022-11-16T10:23:02.796Z,996.29
2022-11-16T10:25:07.794Z,996.29
2022-11-16T10:26:07.332Z,996.31
2022-11-16T10:27:07.355Z,996.28
2022-11-16T10:28:07.379Z,996.26
2022-11-16T10:29:07.400Z,996.29
2022-11-16T10:30:07.430Z,996.25
2022-11-16T10:31:07.452Z,996.21
2022-11-16T10:32:07.591Z,996.18
2022-11-16T10:33:11.063Z,996.17
2022-11-16T10:34:07.528Z,996.18
2022-11-16T10:35:07.560Z,996.16
2022-11-16T10:36:07.575Z,996.18
2022-11-16T10:37:07.620Z,996.17
2022-11-16T10:38:07.620Z,996.12
2022-11-16T10:39:07.651Z,996.17
2022-11-16T10:40:07.671Z,996.17
2022-11-16T10:41:07.692Z,996.14
2022-11-16T10:42:08.148Z,996.12
2022-11-16T10:43:07.759Z,996.09
2022-11-16T10:44:07.773Z,996.10
2022-11-16T10:45:07.791Z,996.11
2022-11-16T10:46:07.816Z,996.09
2022-11-16T10:47:07.845Z,996.06
2022-11-16T10:48:07.955Z,996.02
2022-11-16T10:49:07.888Z,996.04
2022-11-16T10:50:07.911Z,996.02
2022-11-16T10:51:07.943Z,995.99
2022-11-16T10:52:07.963Z,995.98
2022-11-16T10:53:07.986Z,995.97
2022-11-16T10:54:08.011Z,995.99
2022-11-16T10:55:08.037Z,995.95
2022-11-16T10:56:08.059Z,995.98
2022-11-16T10:57:08.082Z,995.94
2022-11-16T10:58:08.108Z,995.96
2022-11-16T10:59:08.131Z,995.94
2022-11-16T11:00:12.619Z,995.96
2022-11-16T11:01:08.262Z,995.92
2022-11-16T11:02:08.198Z,995.95
2022-11-16T11:03:08.226Z,995.94
2022-11-16T11:04:08.343Z,995.90
2022-11-16T11:05:08.276Z,995.91
2022-11-16T11:06:08.303Z,995.92
2022-11-16T11:07:08.361Z,995.96
2022-11-16T11:08:08.350Z,995.99
2022-11-16T11:09:08.388Z,995.96
2022-11-16T11:10:08.400Z,995.92
2022-11-16T11:11:08.423Z,995.97
2022-11-16T11:12:08.447Z,995.97
2022-11-16T11:13:08.467Z,995.93
2022-11-16T11:14:08.495Z,995.93
2022-11-16T11:15:08.520Z,995.90
2022-11-16T11:16:08.553Z,996.05
2022-11-16T11:17:08.570Z,995.99
2022-11-16T11:18:08.593Z,995.94
2022-11-16T11:19:08.618Z,995.97
2022-11-16T11:20:08.643Z,995.94
2022-11-16T11:21:08.665Z,995.94
2022-11-16T11:22:08.689Z,995.97
2022-11-16T11:23:08.715Z,995.90
2022-11-16T11:24:42.412Z,995.90
2022-11-16T11:25:08.766Z,995.91
2022-11-16T11:26:08.789Z,995.91
2022-11-16T11:27:08.821Z,995.92
2022-11-16T11:28:08.846Z,995.97
2022-11-16T11:29:08.866Z,995.95
2022-11-16T11:30:08.885Z,995.98
2022-11-16T11:31:08.913Z,996.01
2022-11-16T11:32:08.963Z,995.98
2022-11-16T11:33:08.961Z,995.97
2022-11-16T11:34:08.982Z,995.96
2022-11-16T11:35:09.015Z,995.95
2022-11-16T11:36:09.219Z,995.97
2022-11-16T11:37:09.063Z,995.94
2022-11-16T11:38:09.089Z,995.95
2022-11-16T11:39:09.181Z,995.94
2022-11-16T11:40:09.137Z,995.97
2022-11-16T11:41:09.196Z,995.95
2022-11-16T11:42:09.193Z,995.95
2022-11-16T11:43:09.217Z,995.91
2022-11-16T11:44:09.241Z,995.91
2022-11-16T11:45:09.266Z,995.92
2022-11-16T11:46:09.295Z,995.92
2022-11-16T11:48:09.335Z,995.92
2022-11-16T11:49:09.364Z,995.92
2022-11-16T11:50:09.389Z,995.90
2022-11-16T11:51:09.408Z,995.91
2022-11-16T11:52:09.526Z,995.98
2022-11-16T11:53:09.460Z,995.93
2022-11-16T11:54:09.482Z,995.93
2022-11-16T11:55:09.504Z,995.92
2022-11-16T11:56:09.532Z,995.91
2022-11-16T11:57:09.557Z,995.89
2022-11-16T11:58:09.588Z,995.92
2022-11-16T11:59:09.607Z,995.90
2022-11-16T12:00:09.631Z,995.93
2022-11-16T12:01:09.654Z,995.94
2022-11-16T12:02:09.687Z,995.95
2022-11-16T12:03:09.762Z,995.90
2022-11-16T12:04:09.722Z,995.92
2022-11-16T12:05:09.759Z,995.92
2022-11-16T12:06:09.774Z,995.92
2022-11-16T12:07:09.808Z,995.96
2022-11-16T12:08:09.912Z,995.93
2022-11-16T12:09:09.844Z,995.94
2022-11-16T12:10:09.870Z,995.94
2022-11-16T12:11:09.895Z,995.96
2022-11-16T12:12:14.499Z,995.95
2022-11-16T12:13:09.940Z,995.96
2022-11-16T12:14:09.967Z,995.89
2022-11-16T12:15:10.000Z,995.88
2022-11-16T12:16:10.043Z,995.88
2022-11-16T12:17:10.036Z,995.89
2022-11-16T12:18:10.060Z,995.86
2022-11-16T12:19:10.089Z,995.83
2022-11-16T12:20:10.116Z,995.82
2022-11-16T12:21:10.139Z,995.78
2022-11-16T12:22:10.166Z,995.81
2022-11-16T12:23:10.186Z,995.80
2022-11-16T12:24:10.301Z,995.77
2022-11-16T12:25:10.250Z,995.79
2022-11-16T12:26:10.263Z,995.74
2022-11-16T12:27:10.314Z,995.76
2022-11-16T12:28:10.319Z,995.75
2022-11-16T12:29:10.331Z,995.72
2022-11-16T12:30:10.356Z,995.75
2022-11-16T12:31:10.387Z,995.71
2022-11-16T12:32:10.405Z,995.71
2022-11-16T12:33:10.432Z,995.69